Terminal Aerodrome Forecast
Issued by NWS

Home | Current Version | Previous Version | Text Only | Print | Product List | Glossary On
Versions: 1 2 3 4 5 6 7 8 9 10 11 12 13 14 15 16 17 18 19 20 21 22 23 24 25 26
000
FTUS45 KSLC 290624 AAA
TAFOGD
TAF AMD
KOGD 290624Z 2906/3006 18011KT P6SM SCT150 BKN200
      TEMPO 2906/2909 19015G22KT
     FM291800 17012G18KT P6SM SCT070 BKN100=

USA.gov is the U.S. government's official web portal to all federal, state and local government web resources and services.